sensor_id;sensor_type;location;lat;lon;timestamp;P1;durP1;ratioP1;P2;durP2;ratioP2
8488;SDS011;4281;45.772;12.852;2024-02-26T00:00:12;6.37;;;5.83;;
8488;SDS011;4281;45.772;12.852;2024-02-26T00:02:41;5.20;;;4.80;;
8488;SDS011;4281;45.772;12.852;2024-02-26T00:05:09;6.07;;;5.47;;
8488;SDS011;4281;45.772;12.852;2024-02-26T00:07:37;5.63;;;5.13;;
8488;SDS011;4281;45.772;12.852;2024-02-26T00:10:05;5.33;;;4.83;;
8488;SDS011;4281;45.772;12.852;2024-02-26T00:12:34;5.60;;;5.10;;
8488;SDS011;4281;45.772;12.852;2024-02-26T00:15:04;5.30;;;4.80;;
8488;SDS011;4281;45.772;12.852;2024-02-26T00:17:32;5.30;;;4.80;;
8488;SDS011;4281;45.772;12.852;2024-02-26T00:20:00;6.10;;;5.60;;
8488;SDS011;4281;45.772;12.852;2024-02-26T00:22:30;5.57;;;5.07;;
8488;SDS011;4281;45.772;12.852;2024-02-26T00:24:58;6.13;;;5.53;;
8488;SDS011;4281;45.772;12.852;2024-02-26T00:27:26;5.63;;;5.13;;
8488;SDS011;4281;45.772;12.852;2024-02-26T00:29:54;5.03;;;4.63;;
8488;SDS011;4281;45.772;12.852;2024-02-26T00:32:23;6.73;;;5.63;;
8488;SDS011;4281;45.772;12.852;2024-02-26T00:34:51;5.40;;;4.93;;
8488;SDS011;4281;45.772;12.852;2024-02-26T00:37:19;6.33;;;5.73;;
8488;SDS011;4281;45.772;12.852;2024-02-26T00:39:47;5.70;;;5.10;;
8488;SDS011;4281;45.772;12.852;2024-02-26T00:42:15;5.33;;;4.83;;
8488;SDS011;4281;45.772;12.852;2024-02-26T00:44:43;5.40;;;4.90;;
8488;SDS011;4281;45.772;12.852;2024-02-26T00:47:11;6.40;;;5.20;;
8488;SDS011;4281;45.772;12.852;2024-02-26T00:49:40;5.90;;;5.40;;
8488;SDS011;4281;45.772;12.852;2024-02-26T00:52:08;5.83;;;5.33;;
8488;SDS011;4281;45.772;12.852;2024-02-26T00:54:36;7.33;;;6.37;;
8488;SDS011;4281;45.772;12.852;2024-02-26T00:57:04;6.00;;;5.30;;
8488;SDS011;4281;45.772;12.852;2024-02-26T00:59:32;6.40;;;4.83;;
8488;SDS011;4281;45.772;12.852;2024-02-26T01:02:00;6.07;;;5.47;;
8488;SDS011;4281;45.772;12.852;2024-02-26T01:04:28;5.23;;;4.73;;
8488;SDS011;4281;45.772;12.852;2024-02-26T01:06:58;4.90;;;4.50;;
8488;SDS011;4281;45.772;12.852;2024-02-26T01:09:26;5.00;;;4.50;;
8488;SDS011;4281;45.772;12.852;2024-02-26T01:11:53;5.80;;;4.87;;
8488;SDS011;4281;45.772;12.852;2024-02-26T01:14:21;5.57;;;5.07;;
8488;SDS011;4281;45.772;12.852;2024-02-26T01:16:49;5.23;;;4.73;;
8488;SDS011;4281;45.772;12.852;2024-02-26T01:19:17;5.17;;;4.77;;
8488;SDS011;4281;45.772;12.852;2024-02-26T01:21:45;5.60;;;5.10;;
8488;SDS011;4281;45.772;12.852;2024-02-26T01:24:14;5.67;;;5.17;;
8488;SDS011;4281;45.772;12.852;2024-02-26T01:26:43;5.27;;;4.77;;
8488;SDS011;4281;45.772;12.852;2024-02-26T01:29:11;5.70;;;5.20;;
8488;SDS011;4281;45.772;12.852;2024-02-26T01:31:38;5.77;;;5.00;;
8488;SDS011;4281;45.772;12.852;2024-02-26T01:34:06;5.30;;;4.80;;
8488;SDS011;4281;45.772;12.852;2024-02-26T01:36:35;5.03;;;4.57;;
8488;SDS011;4281;45.772;12.852;2024-02-26T01:39:03;5.27;;;4.77;;
8488;SDS011;4281;45.772;12.852;2024-02-26T01:41:32;5.53;;;5.03;;
8488;SDS011;4281;45.772;12.852;2024-02-26T01:44:00;6.10;;;5.50;;
8488;SDS011;4281;45.772;12.852;2024-02-26T01:46:29;5.80;;;5.20;;
8488;SDS011;4281;45.772;12.852;2024-02-26T01:48:57;5.67;;;5.17;;
8488;SDS011;4281;45.772;12.852;2024-02-26T01:51:26;5.73;;;5.10;;
8488;SDS011;4281;45.772;12.852;2024-02-26T01:53:54;5.80;;;5.20;;
8488;SDS011;4281;45.772;12.852;2024-02-26T01:56:22;5.93;;;5.23;;
8488;SDS011;4281;45.772;12.852;2024-02-26T01:58:55;5.03;;;4.53;;
8488;SDS011;4281;45.772;12.852;2024-02-26T02:01:24;5.13;;;4.63;;
8488;SDS011;4281;45.772;12.852;2024-02-26T02:03:53;4.67;;;4.27;;
8488;SDS011;4281;45.772;12.852;2024-02-26T02:06:21;4.93;;;4.53;;
8488;SDS011;4281;45.772;12.852;2024-02-26T02:08:49;4.70;;;4.30;;
8488;SDS011;4281;45.772;12.852;2024-02-26T02:11:17;4.93;;;4.53;;
8488;SDS011;4281;45.772;12.852;2024-02-26T02:13:45;5.17;;;4.53;;
8488;SDS011;4281;45.772;12.852;2024-02-26T02:16:14;5.13;;;4.63;;
8488;SDS011;4281;45.772;12.852;2024-02-26T02:18:43;5.07;;;4.60;;
8488;SDS011;4281;45.772;12.852;2024-02-26T02:21:12;4.90;;;4.50;;
8488;SDS011;4281;45.772;12.852;2024-02-26T02:23:40;4.90;;;4.50;;
8488;SDS011;4281;45.772;12.852;2024-02-26T02:26:12;4.57;;;4.17;;
8488;SDS011;4281;45.772;12.852;2024-02-26T02:28:41;4.77;;;4.37;;
8488;SDS011;4281;45.772;12.852;2024-02-26T02:31:09;4.30;;;3.97;;
8488;SDS011;4281;45.772;12.852;2024-02-26T02:33:37;4.83;;;4.43;;
8488;SDS011;4281;45.772;12.852;2024-02-26T02:36:05;5.50;;;5.00;;
8488;SDS011;4281;45.772;12.852;2024-02-26T02:38:38;4.83;;;4.33;;
8488;SDS011;4281;45.772;12.852;2024-02-26T02:41:05;5.27;;;4.77;;
8488;SDS011;4281;45.772;12.852;2024-02-26T02:43:33;5.13;;;4.63;;
8488;SDS011;4281;45.772;12.852;2024-02-26T02:46:01;5.10;;;4.70;;
8488;SDS011;4281;45.772;12.852;2024-02-26T02:48:29;5.00;;;4.50;;
8488;SDS011;4281;45.772;12.852;2024-02-26T02:50:57;5.67;;;5.17;;
8488;SDS011;4281;45.772;12.852;2024-02-26T02:53:25;5.43;;;4.93;;
8488;SDS011;4281;45.772;12.852;2024-02-26T02:55:54;6.23;;;5.33;;
8488;SDS011;4281;45.772;12.852;2024-02-26T02:58:22;5.77;;;5.17;;
8488;SDS011;4281;45.772;12.852;2024-02-26T03:00:50;6.60;;;5.90;;
8488;SDS011;4281;45.772;12.852;2024-02-26T03:03:18;6.00;;;5.50;;
8488;SDS011;4281;45.772;12.852;2024-02-26T03:05:46;6.40;;;5.80;;
8488;SDS011;4281;45.772;12.852;2024-02-26T03:08:14;6.63;;;6.03;;
8488;SDS011;4281;45.772;12.852;2024-02-26T03:10:42;6.00;;;5.47;;
8488;SDS011;4281;45.772;12.852;2024-02-26T03:13:11;6.50;;;5.90;;
8488;SDS011;4281;45.772;12.852;2024-02-26T03:15:39;7.10;;;6.40;;
8488;SDS011;4281;45.772;12.852;2024-02-26T03:18:07;6.83;;;6.13;;
8488;SDS011;4281;45.772;12.852;2024-02-26T03:20:35;7.03;;;6.43;;
8488;SDS011;4281;45.772;12.852;2024-02-26T03:23:04;6.90;;;6.30;;
8488;SDS011;4281;45.772;12.852;2024-02-26T03:25:32;7.40;;;6.77;;
8488;SDS011;4281;45.772;12.852;2024-02-26T03:27:59;6.87;;;6.27;;
8488;SDS011;4281;45.772;12.852;2024-02-26T03:30:29;7.40;;;6.67;;
8488;SDS011;4281;45.772;12.852;2024-02-26T03:32:57;7.23;;;6.53;;
8488;SDS011;4281;45.772;12.852;2024-02-26T03:35:25;7.30;;;6.57;;
8488;SDS011;4281;45.772;12.852;2024-02-26T03:37:53;7.43;;;6.67;;
8488;SDS011;4281;45.772;12.852;2024-02-26T03:40:20;7.20;;;6.50;;
8488;SDS011;4281;45.772;12.852;2024-02-26T03:42:48;6.67;;;6.07;;
8488;SDS011;4281;45.772;12.852;2024-02-26T03:45:16;7.00;;;6.30;;
8488;SDS011;4281;45.772;12.852;2024-02-26T03:47:46;7.43;;;6.73;;
8488;SDS011;4281;45.772;12.852;2024-02-26T03:50:14;7.40;;;6.70;;
8488;SDS011;4281;45.772;12.852;2024-02-26T03:52:42;7.10;;;6.40;;
8488;SDS011;4281;45.772;12.852;2024-02-26T03:55:10;7.30;;;6.60;;
8488;SDS011;4281;45.772;12.852;2024-02-26T03:57:38;6.93;;;6.33;;
8488;SDS011;4281;45.772;12.852;2024-02-26T04:00:06;7.03;;;6.43;;
8488;SDS011;4281;45.772;12.852;2024-02-26T04:02:35;8.97;;;7.60;;
8488;SDS011;4281;45.772;12.852;2024-02-26T04:05:05;8.10;;;7.33;;
8488;SDS011;4281;45.772;12.852;2024-02-26T04:07:36;8.70;;;7.83;;
8488;SDS011;4281;45.772;12.852;2024-02-26T04:10:08;9.07;;;8.17;;
8488;SDS011;4281;45.772;12.852;2024-02-26T04:12:38;8.57;;;7.83;;
8488;SDS011;4281;45.772;12.852;2024-02-26T04:15:07;8.43;;;7.63;;
8488;SDS011;4281;45.772;12.852;2024-02-26T04:17:36;8.70;;;7.77;;
8488;SDS011;4281;45.772;12.852;2024-02-26T04:20:07;8.27;;;7.47;;
8488;SDS011;4281;45.772;12.852;2024-02-26T04:22:40;8.77;;;7.83;;
8488;SDS011;4281;45.772;12.852;2024-02-26T04:25:08;8.33;;;7.40;;
8488;SDS011;4281;45.772;12.852;2024-02-26T04:27:36;8.10;;;7.30;;
8488;SDS011;4281;45.772;12.852;2024-02-26T04:30:05;7.57;;;6.90;;
8488;SDS011;4281;45.772;12.852;2024-02-26T04:32:33;7.80;;;7.00;;
8488;SDS011;4281;45.772;12.852;2024-02-26T04:35:02;8.50;;;7.57;;
8488;SDS011;4281;45.772;12.852;2024-02-26T04:37:31;8.23;;;7.50;;
8488;SDS011;4281;45.772;12.852;2024-02-26T04:39:59;8.47;;;7.67;;
8488;SDS011;4281;45.772;12.852;2024-02-26T04:42:27;9.33;;;8.33;;
8488;SDS011;4281;45.772;12.852;2024-02-26T04:44:55;8.60;;;7.73;;
8488;SDS011;4281;45.772;12.852;2024-02-26T04:47:23;8.33;;;7.53;;
8488;SDS011;4281;45.772;12.852;2024-02-26T04:49:51;8.83;;;8.03;;
8488;SDS011;4281;45.772;12.852;2024-02-26T04:52:19;8.67;;;7.13;;
8488;SDS011;4281;45.772;12.852;2024-02-26T04:54:48;8.40;;;7.60;;
8488;SDS011;4281;45.772;12.852;2024-02-26T04:57:16;8.53;;;7.20;;
8488;SDS011;4281;45.772;12.852;2024-02-26T04:59:45;8.10;;;7.30;;
8488;SDS011;4281;45.772;12.852;2024-02-26T05:02:13;7.37;;;6.73;;
8488;SDS011;4281;45.772;12.852;2024-02-26T05:04:41;8.33;;;7.53;;
8488;SDS011;4281;45.772;12.852;2024-02-26T05:07:09;9.07;;;7.37;;
8488;SDS011;4281;45.772;12.852;2024-02-26T05:09:39;7.50;;;6.80;;
8488;SDS011;4281;45.772;12.852;2024-02-26T05:12:09;7.90;;;7.10;;
8488;SDS011;4281;45.772;12.852;2024-02-26T05:14:37;8.17;;;7.37;;
8488;SDS011;4281;45.772;12.852;2024-02-26T05:17:06;7.60;;;6.90;;
8488;SDS011;4281;45.772;12.852;2024-02-26T05:19:34;8.47;;;7.67;;
8488;SDS011;4281;45.772;12.852;2024-02-26T05:22:02;7.90;;;7.20;;
8488;SDS011;4281;45.772;12.852;2024-02-26T05:24:29;7.50;;;6.83;;
8488;SDS011;4281;45.772;12.852;2024-02-26T05:26:57;9.97;;;8.73;;
8488;SDS011;4281;45.772;12.852;2024-02-26T05:29:28;9.53;;;7.80;;
8488;SDS011;4281;45.772;12.852;2024-02-26T05:31:56;8.87;;;7.83;;
8488;SDS011;4281;45.772;12.852;2024-02-26T05:34:23;8.43;;;7.63;;
8488;SDS011;4281;45.772;12.852;2024-02-26T05:36:51;9.80;;;8.80;;
8488;SDS011;4281;45.772;12.852;2024-02-26T05:39:19;10.17;;;8.97;;
8488;SDS011;4281;45.772;12.852;2024-02-26T05:41:47;9.67;;;8.53;;
8488;SDS011;4281;45.772;12.852;2024-02-26T05:44:16;8.93;;;8.13;;
8488;SDS011;4281;45.772;12.852;2024-02-26T05:46:45;9.63;;;8.67;;
8488;SDS011;4281;45.772;12.852;2024-02-26T05:49:13;9.87;;;8.83;;
8488;SDS011;4281;45.772;12.852;2024-02-26T05:51:41;9.70;;;8.60;;
8488;SDS011;4281;45.772;12.852;2024-02-26T05:54:09;10.83;;;8.30;;
8488;SDS011;4281;45.772;12.852;2024-02-26T05:56:37;9.23;;;7.40;;
8488;SDS011;4281;45.772;12.852;2024-02-26T05:59:05;9.03;;;7.70;;
8488;SDS011;4281;45.772;12.852;2024-02-26T06:01:33;7.93;;;6.73;;
8488;SDS011;4281;45.772;12.852;2024-02-26T06:04:02;8.30;;;7.43;;
8488;SDS011;4281;45.772;12.852;2024-02-26T06:06:30;7.73;;;6.93;;
8488;SDS011;4281;45.772;12.852;2024-02-26T06:08:58;7.63;;;6.83;;
8488;SDS011;4281;45.772;12.852;2024-02-26T06:11:26;6.83;;;6.13;;
8488;SDS011;4281;45.772;12.852;2024-02-26T06:13:54;7.87;;;6.70;;
8488;SDS011;4281;45.772;12.852;2024-02-26T06:16:22;8.03;;;6.97;;
8488;SDS011;4281;45.772;12.852;2024-02-26T06:18:50;9.37;;;7.27;;
8488;SDS011;4281;45.772;12.852;2024-02-26T06:21:19;10.27;;;7.03;;
8488;SDS011;4281;45.772;12.852;2024-02-26T06:23:47;12.50;;;7.97;;
8488;SDS011;4281;45.772;12.852;2024-02-26T06:26:15;11.67;;;8.50;;
8488;SDS011;4281;45.772;12.852;2024-02-26T06:28:44;12.37;;;7.83;;
8488;SDS011;4281;45.772;12.852;2024-02-26T06:31:11;14.57;;;8.43;;
8488;SDS011;4281;45.772;12.852;2024-02-26T06:33:39;15.57;;;9.17;;
8488;SDS011;4281;45.772;12.852;2024-02-26T06:36:08;13.67;;;8.57;;
8488;SDS011;4281;45.772;12.852;2024-02-26T06:38:37;16.43;;;9.03;;
8488;SDS011;4281;45.772;12.852;2024-02-26T06:41:05;15.57;;;9.67;;
8488;SDS011;4281;45.772;12.852;2024-02-26T06:43:33;13.17;;;8.57;;
8488;SDS011;4281;45.772;12.852;2024-02-26T06:46:01;15.13;;;8.60;;
8488;SDS011;4281;45.772;12.852;2024-02-26T06:48:28;16.33;;;9.07;;
8488;SDS011;4281;45.772;12.852;2024-02-26T06:50:57;16.10;;;9.00;;
8488;SDS011;4281;45.772;12.852;2024-02-26T06:53:25;13.07;;;8.63;;
8488;SDS011;4281;45.772;12.852;2024-02-26T06:55:54;13.03;;;8.03;;
8488;SDS011;4281;45.772;12.852;2024-02-26T06:58:22;12.50;;;8.20;;
8488;SDS011;4281;45.772;12.852;2024-02-26T07:00:49;12.50;;;8.33;;
8488;SDS011;4281;45.772;12.852;2024-02-26T07:03:18;10.23;;;6.60;;
8488;SDS011;4281;45.772;12.852;2024-02-26T07:05:46;13.57;;;7.60;;
8488;SDS011;4281;45.772;12.852;2024-02-26T07:08:14;11.23;;;7.17;;
8488;SDS011;4281;45.772;12.852;2024-02-26T07:10:42;12.23;;;7.27;;
8488;SDS011;4281;45.772;12.852;2024-02-26T07:13:12;12.40;;;7.60;;
8488;SDS011;4281;45.772;12.852;2024-02-26T07:15:40;12.40;;;7.63;;
8488;SDS011;4281;45.772;12.852;2024-02-26T07:18:08;14.30;;;7.47;;
8488;SDS011;4281;45.772;12.852;2024-02-26T07:20:37;13.67;;;7.43;;
8488;SDS011;4281;45.772;12.852;2024-02-26T07:23:05;12.40;;;7.20;;
8488;SDS011;4281;45.772;12.852;2024-02-26T07:25:33;11.77;;;6.53;;
8488;SDS011;4281;45.772;12.852;2024-02-26T07:28:01;11.53;;;7.10;;
8488;SDS011;4281;45.772;12.852;2024-02-26T07:30:30;13.10;;;6.33;;
8488;SDS011;4281;45.772;12.852;2024-02-26T07:32:58;10.70;;;6.57;;
8488;SDS011;4281;45.772;12.852;2024-02-26T07:35:26;10.43;;;6.53;;
8488;SDS011;4281;45.772;12.852;2024-02-26T07:37:54;11.37;;;6.77;;
8488;SDS011;4281;45.772;12.852;2024-02-26T07:40:22;13.57;;;7.03;;
8488;SDS011;4281;45.772;12.852;2024-02-26T07:42:50;12.37;;;7.03;;
8488;SDS011;4281;45.772;12.852;2024-02-26T07:45:18;12.53;;;7.73;;
8488;SDS011;4281;45.772;12.852;2024-02-26T07:47:48;11.50;;;7.40;;
8488;SDS011;4281;45.772;12.852;2024-02-26T07:50:18;13.17;;;7.47;;
8488;SDS011;4281;45.772;12.852;2024-02-26T07:52:47;11.33;;;7.43;;
8488;SDS011;4281;45.772;12.852;2024-02-26T07:55:17;11.57;;;7.90;;
8488;SDS011;4281;45.772;12.852;2024-02-26T07:57:45;10.27;;;7.17;;
8488;SDS011;4281;45.772;12.852;2024-02-26T08:00:13;9.37;;;7.47;;
8488;SDS011;4281;45.772;12.852;2024-02-26T08:02:43;11.30;;;7.30;;
8488;SDS011;4281;45.772;12.852;2024-02-26T08:05:12;11.30;;;7.50;;
8488;SDS011;4281;45.772;12.852;2024-02-26T08:07:40;11.27;;;7.07;;
8488;SDS011;4281;45.772;12.852;2024-02-26T08:10:09;10.77;;;6.93;;
8488;SDS011;4281;45.772;12.852;2024-02-26T08:12:37;13.43;;;7.77;;
8488;SDS011;4281;45.772;12.852;2024-02-26T08:15:05;9.27;;;7.17;;
8488;SDS011;4281;45.772;12.852;2024-02-26T08:17:34;9.73;;;6.87;;
8488;SDS011;4281;45.772;12.852;2024-02-26T08:20:02;9.23;;;7.03;;
8488;SDS011;4281;45.772;12.852;2024-02-26T08:22:32;10.27;;;6.53;;
8488;SDS011;4281;45.772;12.852;2024-02-26T08:25:00;9.13;;;6.63;;
8488;SDS011;4281;45.772;12.852;2024-02-26T08:27:31;7.43;;;5.77;;
8488;SDS011;4281;45.772;12.852;2024-02-26T08:29:59;8.87;;;6.33;;
8488;SDS011;4281;45.772;12.852;2024-02-26T08:32:28;6.60;;;5.80;;
8488;SDS011;4281;45.772;12.852;2024-02-26T08:34:56;9.67;;;5.90;;
8488;SDS011;4281;45.772;12.852;2024-02-26T08:37:24;7.47;;;5.40;;
8488;SDS011;4281;45.772;12.852;2024-02-26T08:39:53;6.53;;;5.97;;
8488;SDS011;4281;45.772;12.852;2024-02-26T08:42:21;7.47;;;5.47;;
8488;SDS011;4281;45.772;12.852;2024-02-26T08:44:50;7.43;;;6.30;;
8488;SDS011;4281;45.772;12.852;2024-02-26T08:47:21;9.87;;;6.53;;
8488;SDS011;4281;45.772;12.852;2024-02-26T08:49:49;7.90;;;6.30;;
8488;SDS011;4281;45.772;12.852;2024-02-26T08:52:17;10.67;;;7.47;;
8488;SDS011;4281;45.772;12.852;2024-02-26T08:54:44;10.87;;;7.43;;
8488;SDS011;4281;45.772;12.852;2024-02-26T08:57:14;10.43;;;8.17;;
8488;SDS011;4281;45.772;12.852;2024-02-26T08:59:41;11.77;;;7.33;;
8488;SDS011;4281;45.772;12.852;2024-02-26T09:02:10;9.67;;;7.20;;
8488;SDS011;4281;45.772;12.852;2024-02-26T09:04:37;8.27;;;7.03;;
8488;SDS011;4281;45.772;12.852;2024-02-26T09:07:05;9.20;;;7.33;;
8488;SDS011;4281;45.772;12.852;2024-02-26T09:09:34;14.43;;;8.37;;
8488;SDS011;4281;45.772;12.852;2024-02-26T09:12:02;12.87;;;9.63;;
8488;SDS011;4281;45.772;12.852;2024-02-26T09:14:32;12.93;;;8.50;;
8488;SDS011;4281;45.772;12.852;2024-02-26T09:17:00;11.57;;;8.13;;
8488;SDS011;4281;45.772;12.852;2024-02-26T09:19:28;12.93;;;8.70;;
8488;SDS011;4281;45.772;12.852;2024-02-26T09:21:57;10.73;;;8.17;;
8488;SDS011;4281;45.772;12.852;2024-02-26T09:24:24;12.43;;;8.43;;
8488;SDS011;4281;45.772;12.852;2024-02-26T09:26:53;10.23;;;7.93;;
8488;SDS011;4281;45.772;12.852;2024-02-26T09:29:21;10.93;;;8.10;;
8488;SDS011;4281;45.772;12.852;2024-02-26T09:31:50;11.33;;;8.67;;
8488;SDS011;4281;45.772;12.852;2024-02-26T09:34:18;9.93;;;8.27;;
8488;SDS011;4281;45.772;12.852;2024-02-26T09:36:46;11.70;;;8.27;;
8488;SDS011;4281;45.772;12.852;2024-02-26T09:39:14;9.70;;;7.63;;
8488;SDS011;4281;45.772;12.852;2024-02-26T09:41:48;9.43;;;7.20;;
8488;SDS011;4281;45.772;12.852;2024-02-26T09:44:19;8.40;;;7.03;;
8488;SDS011;4281;45.772;12.852;2024-02-26T09:46:48;8.37;;;6.43;;
8488;SDS011;4281;45.772;12.852;2024-02-26T09:49:17;9.23;;;6.50;;
8488;SDS011;4281;45.772;12.852;2024-02-26T09:51:47;9.10;;;5.80;;
8488;SDS011;4281;45.772;12.852;2024-02-26T09:54:17;6.53;;;5.77;;
8488;SDS011;4281;45.772;12.852;2024-02-26T09:56:45;7.47;;;6.17;;
8488;SDS011;4281;45.772;12.852;2024-02-26T09:59:28;9.73;;;5.47;;
8488;SDS011;4281;45.772;12.852;2024-02-26T10:01:57;5.77;;;5.17;;
8488;SDS011;4281;45.772;12.852;2024-02-26T10:04:27;7.07;;;5.97;;
8488;SDS011;4281;45.772;12.852;2024-02-26T10:06:55;7.23;;;5.60;;
8488;SDS011;4281;45.772;12.852;2024-02-26T10:09:23;6.63;;;5.03;;
8488;SDS011;4281;45.772;12.852;2024-02-26T10:11:51;7.83;;;5.80;;
8488;SDS011;4281;45.772;12.852;2024-02-26T10:14:19;6.20;;;5.60;;
8488;SDS011;4281;45.772;12.852;2024-02-26T10:16:47;7.33;;;5.90;;
8488;SDS011;4281;45.772;12.852;2024-02-26T10:19:24;7.57;;;5.83;;
8488;SDS011;4281;45.772;12.852;2024-02-26T10:21:56;7.53;;;6.17;;
8488;SDS011;4281;45.772;12.852;2024-02-26T10:24:24;7.73;;;6.37;;
8488;SDS011;4281;45.772;12.852;2024-02-26T10:26:52;7.00;;;6.33;;
8488;SDS011;4281;45.772;12.852;2024-02-26T10:29:20;7.00;;;6.30;;
8488;SDS011;4281;45.772;12.852;2024-02-26T10:31:50;8.70;;;6.30;;
8488;SDS011;4281;45.772;12.852;2024-02-26T10:34:18;9.30;;;6.30;;
8488;SDS011;4281;45.772;12.852;2024-02-26T10:36:46;10.10;;;7.30;;
8488;SDS011;4281;45.772;12.852;2024-02-26T10:39:21;8.47;;;6.67;;
8488;SDS011;4281;45.772;12.852;2024-02-26T10:41:49;7.73;;;6.60;;
8488;SDS011;4281;45.772;12.852;2024-02-26T10:44:17;7.00;;;6.30;;
8488;SDS011;4281;45.772;12.852;2024-02-26T10:46:47;6.97;;;6.37;;
8488;SDS011;4281;45.772;12.852;2024-02-26T10:49:15;7.07;;;6.17;;
8488;SDS011;4281;45.772;12.852;2024-02-26T10:51:49;7.27;;;6.47;;
8488;SDS011;4281;45.772;12.852;2024-02-26T10:54:21;6.70;;;5.90;;
8488;SDS011;4281;45.772;12.852;2024-02-26T10:56:51;8.17;;;6.33;;
8488;SDS011;4281;45.772;12.852;2024-02-26T10:59:20;8.73;;;6.20;;
8488;SDS011;4281;45.772;12.852;2024-02-26T11:01:49;7.73;;;6.00;;
8488;SDS011;4281;45.772;12.852;2024-02-26T11:04:18;7.10;;;6.23;;
8488;SDS011;4281;45.772;12.852;2024-02-26T11:06:46;9.20;;;6.00;;
8488;SDS011;4281;45.772;12.852;2024-02-26T11:09:14;6.90;;;5.97;;
8488;SDS011;4281;45.772;12.852;2024-02-26T11:11:44;6.07;;;4.77;;
8488;SDS011;4281;45.772;12.852;2024-02-26T11:14:12;8.13;;;6.17;;
8488;SDS011;4281;45.772;12.852;2024-02-26T11:16:40;6.70;;;5.40;;
8488;SDS011;4281;45.772;12.852;2024-02-26T11:19:09;7.70;;;6.20;;
8488;SDS011;4281;45.772;12.852;2024-02-26T11:21:40;8.50;;;6.00;;
8488;SDS011;4281;45.772;12.852;2024-02-26T11:24:11;7.87;;;6.27;;
8488;SDS011;4281;45.772;12.852;2024-02-26T11:26:41;8.10;;;6.97;;
8488;SDS011;4281;45.772;12.852;2024-02-26T11:29:16;8.87;;;6.30;;
8488;SDS011;4281;45.772;12.852;2024-02-26T11:31:46;7.50;;;6.23;;
8488;SDS011;4281;45.772;12.852;2024-02-26T11:34:14;7.87;;;6.30;;
8488;SDS011;4281;45.772;12.852;2024-02-26T11:36:43;6.67;;;5.97;;
8488;SDS011;4281;45.772;12.852;2024-02-26T11:39:12;8.07;;;5.70;;
8488;SDS011;4281;45.772;12.852;2024-02-26T11:41:41;6.07;;;5.20;;
8488;SDS011;4281;45.772;12.852;2024-02-26T11:44:09;6.67;;;5.87;;
8488;SDS011;4281;45.772;12.852;2024-02-26T11:46:40;6.40;;;5.80;;
8488;SDS011;4281;45.772;12.852;2024-02-26T11:51:59;8.70;;;5.97;;
8488;SDS011;4281;45.772;12.852;2024-02-26T11:54:39;8.67;;;6.13;;
8488;SDS011;4281;45.772;12.852;2024-02-26T11:57:21;7.37;;;6.13;;
8488;SDS011;4281;45.772;12.852;2024-02-26T11:59:52;8.33;;;5.80;;
8488;SDS011;4281;45.772;12.852;2024-02-26T12:05:14;7.83;;;6.13;;
8488;SDS011;4281;45.772;12.852;2024-02-26T12:07:44;8.97;;;5.47;;
8488;SDS011;4281;45.772;12.852;2024-02-26T12:10:14;6.97;;;5.60;;
8488;SDS011;4281;45.772;12.852;2024-02-26T12:12:43;7.87;;;5.67;;
8488;SDS011;4281;45.772;12.852;2024-02-26T12:15:12;5.93;;;5.33;;
8488;SDS011;4281;45.772;12.852;2024-02-26T12:17:45;7.27;;;5.60;;
8488;SDS011;4281;45.772;12.852;2024-02-26T12:20:16;6.53;;;5.70;;
8488;SDS011;4281;45.772;12.852;2024-02-26T12:22:46;7.23;;;6.00;;
8488;SDS011;4281;45.772;12.852;2024-02-26T12:25:16;6.23;;;5.63;;
8488;SDS011;4281;45.772;12.852;2024-02-26T12:27:44;6.77;;;6.07;;
8488;SDS011;4281;45.772;12.852;2024-02-26T12:30:12;8.43;;;6.23;;
8488;SDS011;4281;45.772;12.852;2024-02-26T12:32:40;8.50;;;6.77;;
8488;SDS011;4281;45.772;12.852;2024-02-26T12:35:09;6.93;;;6.10;;
8488;SDS011;4281;45.772;12.852;2024-02-26T12:37:37;9.40;;;6.37;;
8488;SDS011;4281;45.772;12.852;2024-02-26T12:40:08;6.60;;;5.30;;
8488;SDS011;4281;45.772;12.852;2024-02-26T12:42:37;9.70;;;5.87;;
8488;SDS011;4281;45.772;12.852;2024-02-26T12:45:07;6.63;;;5.53;;
8488;SDS011;4281;45.772;12.852;2024-02-26T12:47:36;5.80;;;5.23;;
8488;SDS011;4281;45.772;12.852;2024-02-26T12:50:05;5.80;;;5.20;;
8488;SDS011;4281;45.772;12.852;2024-02-26T12:52:37;5.87;;;5.27;;
8488;SDS011;4281;45.772;12.852;2024-02-26T12:55:07;5.47;;;4.80;;
8488;SDS011;4281;45.772;12.852;2024-02-26T12:57:35;6.17;;;5.13;;
8488;SDS011;4281;45.772;12.852;2024-02-26T13:00:05;6.47;;;5.00;;
8488;SDS011;4281;45.772;12.852;2024-02-26T13:02:36;5.90;;;5.27;;
8488;SDS011;4281;45.772;12.852;2024-02-26T13:05:05;7.63;;;4.73;;
8488;SDS011;4281;45.772;12.852;2024-02-26T13:07:35;5.97;;;4.30;;
8488;SDS011;4281;45.772;12.852;2024-02-26T13:10:09;6.63;;;5.30;;
8488;SDS011;4281;45.772;12.852;2024-02-26T13:12:41;5.13;;;4.53;;
8488;SDS011;4281;45.772;12.852;2024-02-26T13:15:14;6.17;;;4.20;;
8488;SDS011;4281;45.772;12.852;2024-02-26T13:17:42;5.57;;;4.50;;
8488;SDS011;4281;45.772;12.852;2024-02-26T13:20:10;5.70;;;4.33;;
8488;SDS011;4281;45.772;12.852;2024-02-26T13:22:38;6.30;;;4.30;;
8488;SDS011;4281;45.772;12.852;2024-02-26T13:25:08;6.53;;;4.20;;
8488;SDS011;4281;45.772;12.852;2024-02-26T13:27:36;4.77;;;3.50;;
8488;SDS011;4281;45.772;12.852;2024-02-26T13:30:05;6.90;;;3.77;;
8488;SDS011;4281;45.772;12.852;2024-02-26T13:32:35;5.10;;;3.30;;
8488;SDS011;4281;45.772;12.852;2024-02-26T13:35:04;4.33;;;3.70;;
8488;SDS011;4281;45.772;12.852;2024-02-26T13:37:33;5.27;;;3.83;;
8488;SDS011;4281;45.772;12.852;2024-02-26T13:40:04;4.87;;;3.27;;
8488;SDS011;4281;45.772;12.852;2024-02-26T13:42:34;4.17;;;3.20;;
8488;SDS011;4281;45.772;12.852;2024-02-26T13:45:02;8.30;;;4.60;;
8488;SDS011;4281;45.772;12.852;2024-02-26T13:47:32;7.23;;;4.53;;
8488;SDS011;4281;45.772;12.852;2024-02-26T13:50:00;6.87;;;4.73;;
8488;SDS011;4281;45.772;12.852;2024-02-26T13:52:29;5.27;;;3.90;;
8488;SDS011;4281;45.772;12.852;2024-02-26T13:54:58;4.00;;;3.60;;
8488;SDS011;4281;45.772;12.852;2024-02-26T13:57:27;6.17;;;4.07;;
8488;SDS011;4281;45.772;12.852;2024-02-26T13:59:56;6.30;;;3.80;;
8488;SDS011;4281;45.772;12.852;2024-02-26T14:02:24;5.33;;;3.83;;
8488;SDS011;4281;45.772;12.852;2024-02-26T14:04:52;4.60;;;3.87;;
8488;SDS011;4281;45.772;12.852;2024-02-26T14:07:20;4.70;;;4.00;;
8488;SDS011;4281;45.772;12.852;2024-02-26T14:09:48;5.47;;;4.20;;
8488;SDS011;4281;45.772;12.852;2024-02-26T14:12:18;6.43;;;4.03;;
8488;SDS011;4281;45.772;12.852;2024-02-26T14:14:50;5.33;;;3.67;;
8488;SDS011;4281;45.772;12.852;2024-02-26T14:17:21;4.93;;;3.50;;
8488;SDS011;4281;45.772;12.852;2024-02-26T14:19:49;4.60;;;4.00;;
8488;SDS011;4281;45.772;12.852;2024-02-26T14:22:17;6.87;;;4.50;;
8488;SDS011;4281;45.772;12.852;2024-02-26T14:24:45;7.53;;;4.47;;
8488;SDS011;4281;45.772;12.852;2024-02-26T14:27:13;6.03;;;4.30;;
8488;SDS011;4281;45.772;12.852;2024-02-26T14:29:42;6.60;;;4.33;;
8488;SDS011;4281;45.772;12.852;2024-02-26T14:32:10;6.13;;;4.23;;
8488;SDS011;4281;45.772;12.852;2024-02-26T14:34:39;4.53;;;4.07;;
8488;SDS011;4281;45.772;12.852;2024-02-26T14:37:08;5.77;;;4.37;;
8488;SDS011;4281;45.772;12.852;2024-02-26T14:39:36;7.00;;;4.97;;
8488;SDS011;4281;45.772;12.852;2024-02-26T14:42:05;6.03;;;4.97;;
8488;SDS011;4281;45.772;12.852;2024-02-26T14:44:33;6.63;;;5.53;;
8488;SDS011;4281;45.772;12.852;2024-02-26T14:47:01;6.13;;;5.53;;
8488;SDS011;4281;45.772;12.852;2024-02-26T14:49:29;8.47;;;6.80;;
8488;SDS011;4281;45.772;12.852;2024-02-26T14:51:59;6.93;;;6.03;;
8488;SDS011;4281;45.772;12.852;2024-02-26T14:54:29;9.30;;;7.63;;
8488;SDS011;4281;45.772;12.852;2024-02-26T14:56:59;8.70;;;7.33;;
8488;SDS011;4281;45.772;12.852;2024-02-26T14:59:27;9.90;;;7.10;;
8488;SDS011;4281;45.772;12.852;2024-02-26T15:01:55;6.70;;;6.10;;
8488;SDS011;4281;45.772;12.852;2024-02-26T15:04:22;9.37;;;7.10;;
8488;SDS011;4281;45.772;12.852;2024-02-26T15:06:50;7.77;;;6.80;;
8488;SDS011;4281;45.772;12.852;2024-02-26T15:09:20;7.00;;;6.30;;
8488;SDS011;4281;45.772;12.852;2024-02-26T15:11:48;7.90;;;5.93;;